Time;durP1;ratioP1;P1;durP2;ratioP2;P2;SDS_P1;SDS_P2;PMS_P1;PMS_P2;Temp;Humidity;BMP_temperature;BMP_pressure;BME280_temperature;BME280_humidity;BME280_pressure;Samples;Min_cycle;Max_cycle;Signal;HPM_P1;HPM_P2
2023/02/11 00:00:58;;;;;;;1999.90;999.90;;;1.70;99.90;;;;;;5113175;28;20042;-72
2023/02/11 00:03:24;;;;;;;1999.90;999.90;;;1.70;99.90;;;;;;5112937;28;20074;-72
2023/02/11 00:05:58;;;;;;;1999.90;999.90;;;1.70;99.90;;;;;;5112808;28;20495;-73
2023/02/11 00:08:23;;;;;;;1999.90;999.90;;;1.70;99.90;;;;;;5112845;28;20030;-72
2023/02/11 00:10:56;;;;;;;1999.90;999.90;;;1.70;99.90;;;;;;5112912;28;20023;-72
2023/02/11 00:13:23;;;;;;;1999.90;999.90;;;1.80;99.90;;;;;;5112807;28;20036;-72
2023/02/11 00:15:49;;;;;;;1999.90;999.90;;;1.80;99.90;;;;;;5112784;28;20407;-73
2023/02/11 00:18:15;;;;;;;1999.90;999.90;;;1.80;99.90;;;;;;5112580;28;20027;-73
2023/02/11 00:20:41;;;;;;;1999.90;999.90;;;1.70;99.90;;;;;;5112872;28;20077;-80
2023/02/11 00:23:07;;;;;;;1999.90;999.90;;;1.70;99.90;;;;;;5094475;28;20126;-72
2023/02/11 00:25:33;;;;;;;1999.90;999.90;;;1.70;99.90;;;;;;5112541;28;20072;-72
2023/02/11 00:27:59;;;;;;;1999.90;999.90;;;1.70;99.90;;;;;;5112602;28;20024;-73
2023/02/11 00:30:24;;;;;;;1999.90;999.90;;;1.70;99.90;;;;;;5105712;28;20021;-80
2023/02/11 00:32:50;;;;;;;1999.90;999.90;;;1.60;99.90;;;;;;5070773;28;20032;-79
2023/02/11 00:35:16;;;;;;;1999.90;999.90;;;1.60;99.90;;;;;;5072097;28;20365;-72
2023/02/11 00:37:41;;;;;;;1999.90;999.90;;;1.50;99.90;;;;;;5061463;28;20035;-72
2023/02/11 00:40:07;;;;;;;1999.90;999.90;;;1.50;99.90;;;;;;5092011;28;20661;-72
2023/02/11 00:42:36;;;;;;;1999.90;999.90;;;1.50;99.90;;;;;;5092200;28;20020;-72
2023/02/11 00:45:02;;;;;;;1999.90;999.90;;;1.40;99.90;;;;;;5089671;28;20470;-80
2023/02/11 00:47:28;;;;;;;1999.90;999.90;;;1.40;99.90;;;;;;5090327;28;20028;-80
2023/02/11 00:49:53;;;;;;;1999.90;999.90;;;1.40;99.90;;;;;;5073845;28;20023;-72
2023/02/11 00:52:19;;;;;;;1999.90;999.90;;;1.30;99.90;;;;;;5092029;28;20024;-72
2023/02/11 00:54:45;;;;;;;1999.90;999.90;;;1.30;99.90;;;;;;5092185;28;20091;-72
2023/02/11 00:57:10;;;;;;;1999.90;999.90;;;1.20;99.90;;;;;;5073805;28;20559;-80
2023/02/11 00:59:36;;;;;;;1999.90;999.90;;;1.20;99.90;;;;;;5091875;28;20021;-79
2023/02/11 01:02:02;;;;;;;1999.90;999.90;;;1.20;99.90;;;;;;5092049;28;20024;-72
2023/02/11 01:04:27;;;;;;;1999.90;999.90;;;1.20;99.90;;;;;;5091903;28;20385;-72
2023/02/11 01:06:53;;;;;;;1999.90;999.90;;;1.20;99.90;;;;;;5092449;28;20093;-72
2023/02/11 01:09:20;;;;;;;1999.90;999.90;;;1.10;99.90;;;;;;5073720;28;20559;-72
2023/02/11 01:11:46;;;;;;;1999.90;999.90;;;1.10;99.90;;;;;;5091877;28;20020;-80
2023/02/11 01:14:11;;;;;;;1999.90;999.90;;;1.10;99.90;;;;;;5091836;28;20043;-72
2023/02/11 01:16:38;;;;;;;1999.90;999.90;;;1.10;99.90;;;;;;5091362;28;20039;-72
2023/02/11 01:19:04;;;;;;;1999.90;999.90;;;1.20;99.90;;;;;;5091895;28;20081;-72
2023/02/11 01:21:29;;;;;;;1999.90;999.90;;;1.10;99.90;;;;;;5091677;28;20020;-72
2023/02/11 01:23:55;;;;;;;1999.90;999.90;;;1.10;99.90;;;;;;5091652;28;20032;-72
2023/02/11 01:26:20;;;;;;;1999.90;999.90;;;1.10;99.90;;;;;;5091636;28;20031;-80
2023/02/11 01:28:46;;;;;;;1999.90;999.90;;;1.00;99.90;;;;;;5091821;28;20051;-72
2023/02/11 01:31:12;;;;;;;1999.90;999.90;;;1.00;99.90;;;;;;5081505;28;20471;-72
2023/02/11 01:33:38;;;;;;;1999.90;999.90;;;1.00;99.90;;;;;;5071282;28;20029;-72
2023/02/11 01:36:05;;;;;;;1999.90;999.90;;;1.00;99.90;;;;;;5071152;28;20033;-72
2023/02/11 01:38:32;;;;;;;1999.90;999.90;;;1.00;99.90;;;;;;5093956;28;20392;-81
2023/02/11 01:41:06;;;;;;;1999.90;999.90;;;1.00;99.90;;;;;;5091793;28;20035;-72
2023/02/11 01:43:42;;;;;;;1999.90;999.90;;;1.10;99.90;;;;;;5091490;28;20020;-72
2023/02/11 01:46:40;;;;;;;1999.90;999.90;;;1.10;99.90;;;;;;5093312;28;20395;-72
2023/02/11 01:49:13;;;;;;;1999.90;999.90;;;1.10;99.90;;;;;;5039801;28;20404;-80
2023/02/11 01:52:03;;;;;;;1999.90;999.90;;;1.10;99.90;;;;;;5076785;28;20021;-72
2023/02/11 01:57:25;;;;;;;1999.90;999.90;;;1.10;99.90;;;;;;5095219;28;20023;-73
2023/02/11 02:00:02;;;;;;;1999.90;999.90;;;1.00;99.90;;;;;;5094952;28;20042;-72
2023/02/11 02:02:56;;;;;;;1999.90;999.90;;;1.00;99.90;;;;;;5094988;28;20028;-80
2023/02/11 02:05:34;;;;;;;1999.90;999.90;;;0.90;99.90;;;;;;5049453;28;20119;-80
2023/02/11 02:08:18;;;;;;;1999.90;999.90;;;0.90;99.90;;;;;;5094813;28;20035;-72
2023/02/11 02:10:47;;;;;;;1999.90;999.90;;;0.90;99.90;;;;;;5076500;28;20575;-72
2023/02/11 02:13:13;;;;;;;1999.90;999.90;;;0.90;99.90;;;;;;5094867;28;20020;-72
2023/02/11 02:15:47;;;;;;;1999.90;999.90;;;0.90;99.90;;;;;;5094721;28;20035;-80
2023/02/11 02:18:30;;;;;;;1999.90;999.90;;;0.90;99.90;;;;;;5094724;28;20027;-80
2023/02/11 02:21:15;;;;;;;1999.90;999.90;;;0.90;99.90;;;;;;5094821;28;20134;-72
2023/02/11 02:24:22;;;;;;;1999.90;999.90;;;0.90;99.90;;;;;;5094349;28;20028;-72
2023/02/11 02:27:05;;;;;;;1999.90;999.90;;;0.90;99.90;;;;;;5093992;28;20036;-72
2023/02/11 02:29:46;;;;;;;1999.90;999.90;;;0.90;99.90;;;;;;5094415;28;20047;-80
2023/02/11 02:32:20;;;;;;;1999.90;999.90;;;0.90;99.90;;;;;;5076009;28;20040;-72
2023/02/11 02:34:57;;;;;;;1999.90;999.90;;;0.80;99.90;;;;;;5074371;28;20024;-72
2023/02/11 02:37:35;;;;;;;1999.90;999.90;;;0.70;99.90;;;;;;5078934;28;20161;-72
2023/02/11 02:40:07;;;;;;;1999.90;999.90;;;0.70;99.90;;;;;;5094136;28;20076;-80
2023/02/11 02:42:33;;;;;;;1999.90;999.90;;;0.70;99.90;;;;;;5094299;28;20020;-80
2023/02/11 02:44:59;;;;;;;1999.90;999.90;;;0.60;99.90;;;;;;5093739;28;20040;-72
2023/02/11 02:47:26;;;;;;;1999.90;999.90;;;0.70;99.90;;;;;;5093596;28;20527;-72
2023/02/11 02:49:51;;;;;;;1999.90;999.90;;;0.70;99.90;;;;;;5093548;28;20028;-72
2023/02/11 02:52:40;;;;;;;1999.90;999.90;;;0.60;99.90;;;;;;5093874;28;20035;-72
2023/02/11 02:55:21;;;;;;;1999.90;999.90;;;0.50;99.90;;;;;;5075971;28;20480;-80
2023/02/11 02:58:11;;;;;;;1999.90;999.90;;;0.50;99.90;;;;;;5093828;28;20103;-80
2023/02/11 03:00:56;;;;;;;1999.90;999.90;;;0.50;99.90;;;;;;5093803;28;20031;-72
2023/02/11 03:03:43;;;;;;;1999.90;999.90;;;0.50;99.90;;;;;;5093892;28;20047;-72
2023/02/11 03:06:31;;;;;;;1999.90;999.90;;;0.50;99.90;;;;;;5093629;28;20028;-80
2023/02/11 03:09:11;;;;;;;1999.90;999.90;;;0.50;99.90;;;;;;5093823;28;20020;-80
2023/02/11 03:11:38;;;;;;;1999.90;999.90;;;0.50;99.90;;;;;;5093399;28;20016;-72
2023/02/11 03:14:09;;;;;;;1999.90;999.90;;;0.50;99.90;;;;;;5093515;28;20107;-72
2023/02/11 03:16:38;;;;;;;1999.90;999.90;;;0.60;99.90;;;;;;5093652;28;20028;-72
2023/02/11 03:19:25;;;;;;;1999.90;999.90;;;0.60;99.90;;;;;;5093697;28;20031;-80
2023/02/11 03:21:52;;;;;;;1999.90;999.90;;;0.60;99.90;;;;;;5075248;28;20377;-80
2023/02/11 03:24:29;;;;;;;1999.90;999.90;;;0.60;99.90;;;;;;5093216;28;20476;-72
2023/02/11 03:27:00;;;;;;;1999.90;999.90;;;0.50;99.90;;;;;;5093427;28;20034;-73
2023/02/11 03:29:50;;;;;;;1999.90;999.90;;;0.50;99.90;;;;;;5093259;28;20016;-72
2023/02/11 03:32:29;;;;;;;1999.90;999.90;;;0.50;99.90;;;;;;5074138;28;20358;-80
2023/02/11 03:35:22;;;;;;;1999.90;999.90;;;0.50;99.90;;;;;;5073138;28;20099;-80
2023/02/11 03:38:11;;;;;;;1999.90;999.90;;;0.50;99.90;;;;;;5081101;28;20488;-73
2023/02/11 03:40:40;;;;;;;1999.90;999.90;;;0.50;99.90;;;;;;5093045;28;20262;-73
2023/02/11 03:43:17;;;;;;;1999.90;999.90;;;0.50;99.90;;;;;;5093131;28;20028;-72
2023/02/11 03:45:46;;;;;;;1999.90;999.90;;;0.50;99.90;;;;;;5092571;28;20040;-80
2023/02/11 03:48:19;;;;;;;1999.90;999.90;;;0.50;99.90;;;;;;5092314;28;20052;-80
2023/02/11 03:50:47;;;;;;;1999.90;999.90;;;0.50;99.90;;;;;;5093110;28;20024;-72
2023/02/11 03:53:14;;;;;;;1999.90;999.90;;;0.50;99.90;;;;;;5092692;28;20032;-73
2023/02/11 03:55:41;;;;;;;1999.90;999.90;;;0.50;99.90;;;;;;5092862;28;20089;-72
2023/02/11 03:58:07;;;;;;;1999.90;999.90;;;0.50;99.90;;;;;;5092715;28;20065;-80
2023/02/11 04:00:38;;;;;;;1999.90;999.90;;;0.50;99.90;;;;;;5092668;28;20042;-80
2023/02/11 04:03:04;;;;;;;1999.90;999.90;;;0.50;99.90;;;;;;5074686;28;20032;-72
2023/02/11 04:05:30;;;;;;;1999.90;999.90;;;0.50;99.90;;;;;;5092366;28;20039;-73
2023/02/11 04:07:56;;;;;;;1999.90;999.90;;;0.50;99.90;;;;;;5092201;28;20032;-73
2023/02/11 04:10:21;;;;;;;1999.90;999.90;;;0.50;99.90;;;;;;5092519;28;20381;-73
2023/02/11 04:12:47;;;;;;;1999.90;999.90;;;0.60;99.90;;;;;;5074616;28;20119;-80
2023/02/11 04:15:13;;;;;;;1999.90;999.90;;;0.50;99.90;;;;;;5092528;28;20024;-80
2023/02/11 04:17:38;;;;;;;1999.90;999.90;;;0.60;99.90;;;;;;5091817;28;20024;-73
2023/02/11 04:20:04;;;;;;;1999.90;999.90;;;0.60;99.90;;;;;;5092245;28;20492;-73
2023/02/11 04:22:30;;;;;;;1999.90;999.90;;;0.60;99.90;;;;;;5074474;28;20396;-72
2023/02/11 04:24:56;;;;;;;1999.90;999.90;;;0.60;99.90;;;;;;5092124;28;20089;-80
2023/02/11 04:27:22;;;;;;;1999.90;999.90;;;0.50;99.90;;;;;;5092450;28;20040;-80
2023/02/11 04:29:48;;;;;;;1999.90;999.90;;;0.50;99.90;;;;;;5092165;28;20020;-73
2023/02/11 04:32:14;;;;;;;1999.90;999.90;;;0.50;99.90;;;;;;5065190;28;20039;-72
2023/02/11 04:34:39;;;;;;;1999.90;999.90;;;0.40;99.90;;;;;;5072204;28;20036;-72
2023/02/11 04:37:05;;;;;;;1999.90;999.90;;;0.40;99.90;;;;;;5074582;28;20024;-80
2023/02/11 04:39:30;;;;;;;1999.90;999.90;;;0.30;99.90;;;;;;5092065;28;20024;-80
2023/02/11 04:41:56;;;;;;;1999.90;999.90;;;0.30;99.90;;;;;;5073819;28;20036;-73
2023/02/11 04:44:22;;;;;;;1999.90;999.90;;;0.30;99.90;;;;;;5092230;28;20058;-72
2023/02/11 04:46:47;;;;;;;1999.90;999.90;;;0.30;99.90;;;;;;5091421;28;20052;-72
2023/02/11 04:49:15;;;;;;;1999.90;999.90;;;0.20;99.90;;;;;;5092248;28;20114;-72
2023/02/11 04:51:41;;;;;;;1999.90;999.90;;;0.20;99.90;;;;;;5091962;28;20031;-79
2023/02/11 04:54:07;;;;;;;1999.90;999.90;;;0.20;99.90;;;;;;5092051;28;20021;-80
2023/02/11 04:56:33;;;;;;;1999.90;999.90;;;0.10;99.90;;;;;;5092240;28;20407;-72
2023/02/11 04:58:58;;;;;;;1999.90;999.90;;;0.10;99.90;;;;;;5090897;28;20111;-72
2023/02/11 05:01:24;;;;;;;1999.90;999.90;;;0.20;99.90;;;;;;5092138;28;20085;-72
2023/02/11 05:03:50;;;;;;;1999.90;999.90;;;0.20;99.90;;;;;;5092039;28;20039;-80
2023/02/11 05:06:16;;;;;;;1999.90;999.90;;;0.20;99.90;;;;;;5091939;28;20040;-80
2023/02/11 05:08:41;;;;;;;1999.90;999.90;;;0.20;99.90;;;;;;5092120;28;20052;-72
2023/02/11 05:11:13;;;;;;;1999.90;999.90;;;0.20;99.90;;;;;;5092027;28;20024;-72
2023/02/11 05:13:38;;;;;;;1999.90;999.90;;;0.10;99.90;;;;;;5092009;28;20100;-73
2023/02/11 05:16:04;;;;;;;1999.90;999.90;;;0.10;99.90;;;;;;5090419;28;20082;-79
2023/02/11 05:18:30;;;;;;;1999.90;999.90;;;0.00;99.90;;;;;;5091980;28;20028;-80
2023/02/11 05:20:56;;;;;;;1999.90;999.90;;;0.00;99.90;;;;;;5094603;28;20024;-73
2023/02/11 05:23:21;;;;;;;1999.90;999.90;;;0.00;99.90;;;;;;5095854;28;20403;-72
2023/02/11 05:25:47;;;;;;;1999.90;999.90;;;-0.10;99.90;;;;;;5095616;28;20035;-72
2023/02/11 05:28:13;;;;;;;1999.90;999.90;;;-0.10;99.90;;;;;;5095601;28;20020;-73
2023/02/11 05:30:38;;;;;;;1999.90;999.90;;;-0.10;99.90;;;;;;5086999;28;20032;-79
2023/02/11 05:33:04;;;;;;;1999.90;999.90;;;-0.20;99.90;;;;;;5075488;28;20052;-79
2023/02/11 05:35:30;;;;;;;1999.90;999.90;;;-0.20;99.90;;;;;;5075139;28;20025;-72
2023/02/11 05:37:55;;;;;;;1999.90;999.90;;;-0.30;99.90;;;;;;5084882;28;20051;-73
2023/02/11 05:40:21;;;;;;;1999.90;999.90;;;-0.20;99.90;;;;;;5095382;28;20460;-73
2023/02/11 05:42:46;;;;;;;1999.90;999.90;;;-0.30;99.90;;;;;;5095591;28;20026;-79
2023/02/11 05:45:12;;;;;;;1999.90;999.90;;;-0.30;99.90;;;;;;5095139;28;20044;-80
2023/02/11 05:47:38;;;;;;;1999.90;999.90;;;-0.30;99.90;;;;;;5094596;28;20440;-72
2023/02/11 05:50:03;;;;;;;1999.90;999.90;;;-0.20;99.90;;;;;;5095262;28;20541;-72
2023/02/11 05:52:29;;;;;;;1999.90;999.90;;;-0.20;99.90;;;;;;5095113;28;20537;-72
2023/02/11 05:54:55;;;;;;;1999.90;999.90;;;-0.20;99.90;;;;;;5095432;28;20392;-72
2023/02/11 05:57:20;;;;;;;1999.90;999.90;;;-0.20;99.90;;;;;;5093705;28;20072;-80
2023/02/11 05:59:46;;;;;;;1999.90;999.90;;;-0.20;99.90;;;;;;5095104;28;20028;-80
2023/02/11 06:02:11;;;;;;;1999.90;999.90;;;-0.30;99.90;;;;;;5094988;28;20039;-72
2023/02/11 06:04:37;;;;;;;1999.90;999.90;;;-0.30;99.90;;;;;;5093756;28;20506;-72
2023/02/11 06:07:03;;;;;;;1999.90;999.90;;;-0.30;99.90;;;;;;5095306;28;20024;-72
2023/02/11 06:09:29;;;;;;;1999.90;999.90;;;-0.30;99.90;;;;;;5094861;28;20400;-79
2023/02/11 06:11:55;;;;;;;1999.90;999.90;;;-0.30;99.90;;;;;;5094782;28;20024;-80
2023/02/11 06:14:20;;;;;;;1999.90;999.90;;;-0.30;99.90;;;;;;5094779;28;20032;-72
2023/02/11 06:16:46;;;;;;;1999.90;999.90;;;-0.30;99.90;;;;;;5095076;28;20032;-72
2023/02/11 06:19:12;;;;;;;1999.90;999.90;;;-0.30;99.90;;;;;;5094840;28;20035;-72
2023/02/11 06:21:38;;;;;;;1999.90;999.90;;;-0.30;99.90;;;;;;5094117;28;20047;-79
2023/02/11 06:24:04;;;;;;;1999.90;999.90;;;-0.40;99.90;;;;;;5093251;28;20034;-79
2023/02/11 06:26:30;;;;;;;1999.90;999.90;;;-0.40;99.90;;;;;;5094414;28;20024;-72
2023/02/11 06:28:59;;;;;;;1999.90;999.90;;;-0.40;99.90;;;;;;5094724;28;20027;-72
2023/02/11 06:31:24;;;;;;;1999.90;999.90;;;-0.40;99.90;;;;;;5094046;28;20016;-72
2023/02/11 06:33:50;;;;;;;1999.90;999.90;;;-0.30;99.90;;;;;;5094359;28;20089;-72
2023/02/11 06:36:18;;;;;;;1999.90;999.90;;;-0.40;99.90;;;;;;5093908;28;20055;-79
2023/02/11 06:38:45;;;;;;;1999.90;999.90;;;-0.40;99.90;;;;;;5093820;28;20032;-79
2023/02/11 06:41:12;;;;;;;1999.90;999.90;;;-0.40;99.90;;;;;;5076208;28;20031;-72
2023/02/11 06:43:39;;;;;;;1999.90;999.90;;;-0.30;99.90;;;;;;5093878;28;20099;-72
2023/02/11 06:46:05;;;;;;;1999.90;999.90;;;-0.20;99.90;;;;;;5093702;28;20101;-72
2023/02/11 06:48:31;;;;;;;1999.90;999.90;;;-0.20;99.90;;;;;;5093523;28;20459;-72
2023/02/11 06:51:08;;;;;;;1999.90;999.90;;;-0.20;99.90;;;;;;5094222;28;20070;-80
2023/02/11 06:53:39;;;;;;;1999.90;999.90;;;-0.20;99.90;;;;;;5093962;28;20020;-72
2023/02/11 06:56:07;;;;;;;1999.90;999.90;;;-0.30;99.90;;;;;;5093863;28;20032;-72
2023/02/11 06:58:33;;;;;;;1999.90;999.90;;;-0.40;99.90;;;;;;5094025;28;20488;-72
2023/02/11 07:01:02;;;;;;;1999.90;999.90;;;-0.40;99.90;;;;;;5094109;28;20071;-79
2023/02/11 07:03:28;;;;;;;1999.90;999.90;;;-0.40;99.90;;;;;;5093903;28;20119;-80
2023/02/11 07:05:53;;;;;;;1999.90;999.90;;;-0.50;99.90;;;;;;5093592;28;20122;-72
2023/02/11 07:08:19;;;;;;;1999.90;999.90;;;-0.50;99.90;;;;;;5093697;28;20033;-72
2023/02/11 07:10:44;;;;;;;1999.90;999.90;;;-0.50;99.90;;;;;;5092433;28;20029;-72
2023/02/11 07:13:10;;;;;;;1999.90;999.90;;;-0.40;99.90;;;;;;5093655;28;20025;-79
2023/02/11 07:15:37;;;;;;;1999.90;999.90;;;-0.30;99.90;;;;;;5093554;28;20480;-79
2023/02/11 07:18:02;;;;;;;1999.90;999.90;;;-0.20;99.90;;;;;;5092968;28;20020;-73
2023/02/11 07:20:28;;;;;;;1999.90;999.90;;;-0.10;99.90;;;;;;5093409;28;20028;-72
2023/02/11 07:22:54;;;;;;;1999.90;999.90;;;-0.10;99.90;;;;;;5093530;28;20039;-72
2023/02/11 07:25:20;;;;;;;1999.90;999.90;;;-0.10;99.90;;;;;;5092117;28;20052;-72
2023/02/11 07:27:45;;;;;;;1999.90;999.90;;;0.00;99.90;;;;;;5093250;28;20481;-79
2023/02/11 07:30:12;;;;;;;1999.90;999.90;;;0.10;99.90;;;;;;5091635;28;20032;-79
2023/02/11 07:32:37;;;;;;;1999.90;999.90;;;0.20;99.90;;;;;;5073080;28;20016;-72
2023/02/11 07:35:03;;;;;;;1999.90;999.90;;;0.30;99.90;;;;;;5073211;28;20031;-72
2023/02/11 07:37:29;;;;;;;1999.90;999.90;;;0.30;99.90;;;;;;5078778;28;20019;-72
2023/02/11 07:39:55;;;;;;;1999.90;999.90;;;0.40;99.90;;;;;;5093174;28;20411;-80
2023/02/11 07:42:20;;;;;;;1999.90;999.90;;;0.50;99.90;;;;;;5092405;28;20024;-72
2023/02/11 07:44:46;;;;;;;1999.90;999.90;;;0.50;99.90;;;;;;5092768;28;20023;-72
2023/02/11 07:47:11;;;;;;;1999.90;999.90;;;0.60;99.90;;;;;;5093111;28;20077;-72
2023/02/11 07:49:37;;;;;;;1999.90;999.90;;;0.60;99.90;;;;;;5092304;28;20020;-72
2023/02/11 07:52:03;;;;;;;1999.90;999.90;;;0.70;99.90;;;;;;5092879;28;20032;-72
2023/02/11 07:54:28;;;;;;;1999.90;999.90;;;0.70;99.90;;;;;;5093019;28;20032;-72
2023/02/11 07:56:54;;;;;;;1999.90;999.90;;;0.80;99.90;;;;;;5092961;28;20024;-73
2023/02/11 07:59:20;;;;;;;1999.90;999.90;;;0.80;99.90;;;;;;5092946;28;20016;-72
2023/02/11 08:01:45;;;;;;;1999.90;999.90;;;0.90;99.90;;;;;;5092664;28;20480;-72
2023/02/11 08:04:11;;;;;;;1999.90;999.90;;;1.00;99.90;;;;;;5092805;28;20032;-72
2023/02/11 08:06:41;;;;;;;1999.90;999.90;;;1.10;99.90;;;;;;5091385;28;20043;-72
2023/02/11 08:09:08;;;;;;;1999.90;999.90;;;1.20;99.90;;;;;;5092596;28;20079;-72
2023/02/11 08:11:34;;;;;;;1999.90;999.90;;;1.30;99.90;;;;;;5092524;28;20031;-73
2023/02/11 08:14:00;;;;;;;1999.90;999.90;;;1.40;99.90;;;;;;5092509;28;20544;-72
2023/02/11 08:16:29;;;;;;;1999.90;999.90;;;1.60;99.90;;;;;;5092481;28;20111;-80
2023/02/11 08:18:56;;;;;;;1999.90;999.90;;;1.70;99.90;;;;;;5092206;28;20058;-72
2023/02/11 08:21:23;;;;;;;1999.90;999.90;;;1.80;99.90;;;;;;5092412;28;20526;-80
2023/02/11 08:23:49;;;;;;;1999.90;999.90;;;2.10;99.90;;;;;;5091037;28;20503;-80
2023/02/11 08:26:17;;;;;;;1999.90;999.90;;;2.30;99.90;;;;;;5091095;28;20480;-80
2023/02/11 08:28:45;;;;;;;1999.90;999.90;;;2.60;99.90;;;;;;5092513;28;20023;-73
2023/02/11 08:31:19;;;;;;;1999.90;999.90;;;3.60;99.90;;;;;;5082504;28;20089;-73
2023/02/11 08:33:45;;;;;;;1999.90;999.90;;;5.60;99.90;;;;;;5072069;28;20508;-73
2023/02/11 08:36:17;;;;;;;1999.90;999.90;;;7.10;99.90;;;;;;5053926;28;20439;-73
2023/02/11 08:38:43;;;;;;;1999.90;999.90;;;8.10;99.90;;;;;;5084084;28;20127;-82
2023/02/11 08:41:10;;;;;;;1999.90;999.90;;;8.60;99.90;;;;;;5092292;28;20050;-81
2023/02/11 08:43:40;;;;;;;1999.90;999.90;;;7.60;99.90;;;;;;5092195;28;20442;-82
2023/02/11 08:46:06;;;;;;;1999.90;999.90;;;6.30;99.90;;;;;;5091773;28;20048;-73
2023/02/11 08:48:32;;;;;;;1999.90;999.90;;;5.30;99.90;;;;;;5090939;28;20024;-73
2023/02/11 08:50:59;;;;;;;1999.90;999.90;;;4.70;99.90;;;;;;5091656;28;20024;-81
2023/02/11 08:53:24;;;;;;;1999.90;999.90;;;4.50;99.90;;;;;;5092395;28;20051;-81
2023/02/11 08:55:52;;;;;;;1999.90;999.90;;;4.50;99.90;;;;;;5095010;28;20469;-81
2023/02/11 08:58:18;;;;;;;1999.90;999.90;;;4.60;99.90;;;;;;5096169;28;20031;-73
2023/02/11 09:00:44;;;;;;;1999.90;999.90;;;4.90;99.90;;;;;;5096264;28;20032;-73
2023/02/11 09:03:11;;;;;;;1999.90;999.90;;;5.20;99.90;;;;;;5096391;28;20099;-81
2023/02/11 09:05:45;;;;;;;1999.90;999.90;;;5.40;99.90;;;;;;5095924;28;20040;-82
2023/02/11 09:08:11;;;;;;;1999.90;999.90;;;5.40;99.90;;;;;;5096020;28;20047;-73
2023/02/11 09:10:37;;;;;;;1999.90;999.90;;;5.10;99.90;;;;;;5095989;28;20028;-73
2023/02/11 09:13:04;;;;;;;1999.90;999.90;;;5.20;99.90;;;;;;5094914;28;20047;-73
2023/02/11 09:15:29;;;;;;;1999.90;999.90;;;5.10;99.90;;;;;;5095898;28;20097;-82
2023/02/11 09:17:55;;;;;;;1999.90;999.90;;;5.20;99.90;;;;;;5095957;28;20173;-83
2023/02/11 09:20:21;;;;;;;1999.90;999.90;;;5.20;99.90;;;;;;5095974;28;20016;-83
2023/02/11 09:22:47;;;;;;;1999.90;999.90;;;5.10;99.90;;;;;;5095690;28;20404;-73
2023/02/11 09:25:12;;;;;;;1999.90;999.90;;;5.30;99.90;;;;;;5095882;28;20103;-73
2023/02/11 09:27:38;;;;;;;1999.90;999.90;;;5.40;99.90;;;;;;5095665;28;20024;-74
2023/02/11 09:30:04;;;;;;;1999.90;999.90;;;5.50;99.90;;;;;;5095166;28;20020;-73
2023/02/11 09:32:30;;;;;;;1999.90;999.90;;;5.50;99.90;;;;;;5075323;28;20066;-82
2023/02/11 09:34:55;;;;;;;1999.90;999.90;;;5.60;99.90;;;;;;5075198;28;20017;-82
2023/02/11 09:37:21;;;;;;;1999.90;999.90;;;5.70;99.90;;;;;;5080089;28;20069;-73
2023/02/11 09:39:47;;;;;;;1999.90;999.90;;;5.80;99.90;;;;;;5095493;28;20024;-73
2023/02/11 09:42:52;;;;;;;1999.90;999.90;;;5.90;99.90;;;;;;5095391;28;20505;-83
2023/02/11 09:45:21;;;;;;;1999.90;999.90;;;6.30;99.90;;;;;;5095351;28;20508;-83
2023/02/11 09:47:49;;;;;;;1999.90;999.90;;;6.60;99.90;;;;;;5093971;28;20028;-83
2023/02/11 09:50:42;;;;;;;1999.90;999.90;;;6.80;99.90;;;;;;5094186;28;20436;-83
2023/02/11 09:53:20;;;;;;;1999.90;999.90;;;6.90;99.90;;;;;;5084319;28;20508;-83
2023/02/11 09:55:54;;;;;;;1999.90;999.90;;;6.80;99.90;;;;;;5095228;28;20028;-83
2023/02/11 09:58:28;;;;;;;1999.90;999.90;;;6.70;99.90;;;;;;5095240;28;20707;-73
2023/02/11 10:01:04;;;;;;;1999.90;999.90;;;6.70;99.90;;;;;;5095355;28;20043;-82
2023/02/11 10:03:48;;;;;;;1999.90;999.90;;;6.70;99.90;;;;;;5095131;28;20107;-73
2023/02/11 10:06:18;;;;;;;1999.90;999.90;;;6.60;99.90;;;;;;5092700;28;20392;-73
2023/02/11 10:08:47;;;;;;;1999.90;999.90;;;6.70;99.90;;;;;;5094985;28;20036;-82
2023/02/11 10:11:37;;;;;;;1999.90;999.90;;;6.60;99.90;;;;;;5095005;28;20028;-73
2023/02/11 10:14:14;;;;;;;1999.90;999.90;;;6.70;99.90;;;;;;5094770;28;20028;-83
2023/02/11 10:17:14;;;;;;;1999.90;999.90;;;6.70;99.90;;;;;;5094791;28;20024;-73
2023/02/11 10:20:07;;;;;;;1999.90;999.90;;;6.80;99.90;;;;;;5094775;28;20538;-73
2023/02/11 10:22:56;;;;;;;1999.90;999.90;;;6.90;99.90;;;;;;5094666;28;20026;-73
2023/02/11 10:25:26;;;;;;;1999.90;999.90;;;6.90;99.90;;;;;;5094553;28;20032;-73
2023/02/11 10:27:55;;;;;;;1999.90;999.90;;;7.10;99.90;;;;;;5094584;28;20028;-83
2023/02/11 10:30:29;;;;;;;1999.90;999.90;;;7.20;99.90;;;;;;5089878;28;20035;-73
2023/02/11 10:33:29;;;;;;;1999.90;999.90;;;7.30;99.90;;;;;;5074375;28;20576;-73
2023/02/11 10:35:54;;;;;;;1999.90;999.90;;;7.40;99.90;;;;;;5073935;28;20039;-73
2023/02/11 10:38:20;;;;;;;1999.90;999.90;;;7.40;99.90;;;;;;5086388;28;20024;-82
2023/02/11 10:40:46;;;;;;;1999.90;999.90;;;7.50;99.90;;;;;;5094110;28;20404;-83
2023/02/11 10:43:15;;;;;;;1999.90;999.90;;;7.60;99.90;;;;;;5094134;28;20492;-73
2023/02/11 10:45:48;;;;;;;1999.90;999.90;;;7.70;99.90;;;;;;5072392;28;20045;-73
2023/02/11 10:48:38;;;;;;;1999.90;999.90;;;7.90;99.90;;;;;;5090422;28;20093;-82
2023/02/11 10:51:09;;;;;;;1999.90;999.90;;;7.90;99.90;;;;;;5093160;28;20024;-73
2023/02/11 10:53:35;;;;;;;1999.90;999.90;;;8.00;99.90;;;;;;5075807;28;20020;-73
2023/02/11 10:56:02;;;;;;;1999.90;999.90;;;8.00;99.90;;;;;;5093950;28;20032;-82
2023/02/11 10:58:39;;;;;;;1999.90;999.90;;;8.10;99.90;;;;;;5093885;28;20020;-73
2023/02/11 11:01:05;;;;;;;1999.90;999.90;;;8.20;99.90;;;;;;5075815;28;20039;-83
2023/02/11 11:03:38;;;;;;;1999.90;999.90;;;8.30;99.90;;;;;;5093862;28;20024;-82
2023/02/11 11:06:10;;;;;;;1999.90;999.90;;;8.30;99.90;;;;;;5093749;28;20549;-82
2023/02/11 11:08:47;;;;;;;1999.90;999.90;;;8.40;99.90;;;;;;5093593;28;20036;-73
2023/02/11 11:11:16;;;;;;;1999.90;999.90;;;8.40;99.90;;;;;;5093821;28;20042;-73
2023/02/11 11:13:53;;;;;;;1999.90;999.90;;;8.60;99.90;;;;;;5093643;28;20020;-73
2023/02/11 11:16:26;;;;;;;1999.90;999.90;;;8.80;99.90;;;;;;5093588;28;20024;-82
2023/02/11 11:19:12;;;;;;;;;;;8.80;99.90;;;;;;5075171;28;20488;-81
2023/02/11 11:21:46;;;;;;;1999.90;999.90;;;8.80;99.90;;;;;;5075255;28;20291;-82
2023/02/11 11:24:23;;;;;;;1999.90;999.90;;;8.90;99.90;;;;;;5075209;28;20401;-81
2023/02/11 11:26:52;;;;;;;1999.90;999.90;;;9.00;99.90;;;;;;5093392;28;20508;-82
2023/02/11 11:29:23;;;;;;;1999.90;999.90;;;9.30;99.90;;;;;;5093579;28;20031;-82
2023/02/11 11:31:53;;;;;;;1999.90;999.90;;;9.60;99.90;;;;;;5076202;28;20024;-82
2023/02/11 11:34:42;;;;;;;1999.90;999.90;;;9.70;99.90;;;;;;5072799;28;20090;-73
2023/02/11 11:37:18;;;;;;;1999.90;999.90;;;9.70;99.90;;;;;;5075829;28;20419;-73
2023/02/11 11:39:58;;;;;;;1999.90;999.90;;;9.70;99.90;;;;;;5092562;28;20032;-73
2023/02/11 11:42:28;;;;;;;1999.90;999.90;;;9.90;99.90;;;;;;5093137;28;20480;-81
2023/02/11 11:45:21;;;;;;;1999.90;999.90;;;10.00;99.90;;;;;;5091748;28;20113;-82
2023/02/11 11:48:02;;;;;;;1999.90;999.90;;;10.30;99.90;;;;;;5083842;28;20032;-73
2023/02/11 11:50:33;;;;;;;1999.90;999.90;;;10.30;99.90;;;;;;5092433;28;20078;-73
2023/02/11 11:53:19;;;;;;;1999.90;999.90;;;10.40;99.90;;;;;;5092035;28;20415;-82
2023/02/11 11:55:55;;;;;;;1999.90;999.90;;;10.50;99.90;;;;;;5092887;28;20104;-82
2023/02/11 11:58:21;;;;;;;1999.90;999.90;;;10.50;99.90;;;;;;5091409;28;20016;-73
2023/02/11 12:01:24;;;;;;;1999.90;999.90;;;10.70;99.90;;;;;;5092955;28;20028;-73
2023/02/11 12:04:12;;;;;;;1999.90;999.90;;;10.70;99.90;;;;;;5092671;28;20472;-73
2023/02/11 12:07:18;;;;;;;1999.90;999.90;;;10.80;99.90;;;;;;5092684;28;20032;-81
2023/02/11 12:10:10;;;;;;;1999.90;999.90;;;10.90;99.90;;;;;;5036263;28;20047;-82
2023/02/11 12:13:04;;;;;;;1999.90;999.90;;;11.10;99.90;;;;;;5092523;28;20111;-73
2023/02/11 12:15:48;;;;;;;1999.90;999.90;;;11.20;99.90;;;;;;5090575;28;20036;-73
2023/02/11 12:18:37;;;;;;;1999.90;999.90;;;11.10;99.90;;;;;;5092558;28;20024;-82
2023/02/11 12:21:24;;;;;;;1999.90;999.90;;;11.30;99.90;;;;;;5041349;28;20043;-82
2023/02/11 12:24:21;;;;;;;1999.90;999.90;;;11.50;99.90;;;;;;5092432;28;20428;-83
2023/02/11 12:26:50;;;;;;;1999.90;999.90;;;11.50;99.90;;;;;;5092480;28;20020;-73